»·PEaware :: N75232 KSNA-KCRQ

N75232 :: KSNA-KCRQ

FLIGHT INFORMATION

Flight Status: Arrived
Operator: Privately registered:
United States
More flights under this callsign
Pilot: Daniel B. (28719)
Aircraft: CESSNA 172 SKYHAWK
(C172)
More flights by this aircraft type
Origin: KSNA John Wayne-Orange Co
United States
Destination: KCRQ McClellan-Palomar
United States
More flights between these airports :: More routes between these airports
Route: V23 OCN
File this flight plan on PilotEdge
Remarks:
Altitude:
(Current/Filed)
5,000ft
Speed:
(Current/Filed)
115kts
Departed: 03-May-20 04:07 PM
Arrived: 03-May-20 04:52 PM
Distance/Time
Traveled:
44nm/0:44
Distance/Time
To Go:
Arrived

Flight Plot

Page will automatically refresh every two minutes.


Map Options




Map Legend


Flown Route
Filed Route
Departure Airport
Arrival Airport
Navaid (VOR, NDB)
Fix

Horizontal Profiles

Position Reports

Time Latitude Longitude Heading Altitude Ground
Speed
03-May-20 15:54 33.674107 -117.865557 118 60ft 0kts
03-May-20 15:55 33.674107 -117.865557 117 60ft 0kts
03-May-20 15:56 33.674107 -117.865557 118 60ft 0kts
03-May-20 15:57 33.674107 -117.865557 118 60ft 0kts
03-May-20 15:58 33.674107 -117.865557 118 60ft 0kts
03-May-20 15:59 33.674107 -117.865557 118 60ft 0kts
03-May-20 16:00 33.674488 -117.866398 294 60ft 4kts
03-May-20 16:01 33.677064 -117.865204 30 60ft 17kts
03-May-20 16:02 33.679954 -117.863621 293 60ft 2kts
03-May-20 16:03 33.679958 -117.863633 298 60ft 0kts
03-May-20 16:04 33.679958 -117.863633 298 60ft 0kts
03-May-20 16:05 33.679899 -117.864294 210 60ft 16kts
03-May-20 16:06 33.665222 -117.872906 185 632ft 75kts
03-May-20 16:07 33.641650 -117.875386 186 1570ft 77kts
03-May-20 16:08 33.612821 -117.877839 185 2601ft 78kts
03-May-20 16:09 33.581699 -117.879997 187 3589ft 79kts
03-May-20 16:10 33.559158 -117.880528 187 4228ft 81kts
03-May-20 16:11 33.536318 -117.881149 185 4827ft 83kts
03-May-20 16:12 33.521088 -117.855401 113 5041ft 121kts
03-May-20 16:13 33.510581 -117.818049 113 5027ft 125kts
03-May-20 16:14 33.498438 -117.776669 112 5017ft 121kts
03-May-20 16:15 33.487568 -117.738089 112 5059ft 123kts
03-May-20 16:16 33.476440 -117.698635 112 5051ft 128kts
03-May-20 16:17 33.456583 -117.666315 151 5016ft 121kts
03-May-20 16:18 33.430323 -117.640911 139 5040ft 122kts
03-May-20 16:19 33.405744 -117.612300 139 5060ft 123kts
03-May-20 16:20 33.380711 -117.583977 140 5072ft 124kts
03-May-20 16:22 33.367198 -117.546138 100 5035ft 130kts
03-May-20 16:23 33.360995 -117.503449 101 5019ft 129kts
03-May-20 16:24 33.354543 -117.461276 102 5005ft 128kts
03-May-20 16:25 33.349000 -117.419210 100 5002ft 127kts
03-May-20 16:26 33.344555 -117.377120 100 4999ft 126kts
03-May-20 16:27 33.339978 -117.335595 100 5005ft 125kts
03-May-20 16:28 33.335503 -117.294243 100 5003ft 125kts
03-May-20 16:29 33.330483 -117.253483 100 5028ft 124kts
03-May-20 16:30 33.325301 -117.212360 101 5047ft 124kts
03-May-20 16:31 33.320275 -117.171227 101 5058ft 125kts
03-May-20 16:32 33.315159 -117.129738 100 5049ft 126kts
03-May-20 16:33 33.309821 -117.088172 101 5038ft 127kts
03-May-20 16:34 33.303975 -117.046358 101 5020ft 127kts
03-May-20 16:35 33.297752 -117.004550 101 4999ft 128kts
03-May-20 16:36 33.274679 -116.979150 159 5027ft 116kts
03-May-20 16:37 33.245174 -116.962838 159 5069ft 118kts
03-May-20 16:38 33.215685 -116.957543 219 5086ft 106kts
03-May-20 16:38 33.195512 -116.974774 219 4915ft 100kts
03-May-20 16:40 33.173318 -116.997100 253 4234ft 88kts
03-May-20 16:41 33.168945 -117.025949 259 3694ft 88kts
03-May-20 16:41 33.166162 -117.047208 255 3642ft 74kts
03-May-20 16:42 33.161164 -117.072642 258 3661ft 80kts
03-May-20 16:44 33.157323 -117.103069 258 3443ft 72kts
03-May-20 16:44 33.153257 -117.122683 253 3098ft 73kts
03-May-20 16:45 33.150244 -117.146299 261 2641ft 70kts
03-May-20 16:46 33.146444 -117.168651 258 2232ft 70kts
03-May-20 16:47 33.142643 -117.190799 255 1881ft 65kts
03-May-20 16:48 33.139128 -117.212277 255 1502ft 61kts
03-May-20 16:49 33.135986 -117.232895 260 1144ft 67kts
03-May-20 16:50 33.132306 -117.255445 256 676ft 69kts
03-May-20 16:51 33.128928 -117.275917 258 335ft 38kts
03-May-20 16:52 33.127552 -117.279932 227 335ft 0kts
03-May-20 16:53 33.127522 -117.277500 172 335ft 7kts
03-May-20 16:54 33.127290 -117.277877 355 335ft 0kts
03-May-20 16:55 33.127290 -117.277877 355 335ft 0kts
03-May-20 16:56 33.127290 -117.277877 355 335ft 0kts
03-May-20 16:57 33.127290 -117.277877 355 335ft 0kts
03-May-20 16:58 33.127290 -117.277877 355 335ft 0kts
03-May-20 16:59 33.127290 -117.277877 355 335ft 0kts
03-May-20 17:00 33.127290 -117.277877 355 335ft 0kts
03-May-20 17:01 33.127290 -117.277877 355 335ft 0kts
03-May-20 17:02 33.127290 -117.277877 355 335ft 0kts

Navigation Log

Ident Type
Flight plan parsing failed, navigation log unavailable